sensor_id;sensor_type;location;lat;lon;timestamp;pressure;altitude;pressure_sealevel;temperature;humidity
19096;BME280;9680;52.520;13.332;2023-01-30T00:01:22;101077.19;;;2.64;72.30
19096;BME280;9680;52.520;13.332;2023-01-30T00:03:57;101078.91;;;2.57;72.12
19096;BME280;9680;52.520;13.332;2023-01-30T00:06:26;101060.91;;;2.59;72.27
19096;BME280;9680;52.520;13.332;2023-01-30T00:08:56;101039.47;;;2.65;72.51
19096;BME280;9680;52.520;13.332;2023-01-30T00:11:25;101033.47;;;2.66;72.12
19096;BME280;9680;52.520;13.332;2023-01-30T00:13:55;101035.19;;;2.67;72.06
19096;BME280;9680;52.520;13.332;2023-01-30T00:16:22;101018.03;;;2.66;72.04
19096;BME280;9680;52.520;13.332;2023-01-30T00:18:49;101010.34;;;2.67;72.03
19096;BME280;9680;52.520;13.332;2023-01-30T00:21:18;101011.16;;;2.63;71.95
19096;BME280;9680;52.520;13.332;2023-01-30T00:23:45;101013.75;;;2.65;72.08
19096;BME280;9680;52.520;13.332;2023-01-30T00:26:12;101003.47;;;2.69;72.20
19096;BME280;9680;52.520;13.332;2023-01-30T00:28:39;100994.88;;;2.72;71.93
19096;BME280;9680;52.520;13.332;2023-01-30T00:31:06;100985.47;;;2.72;71.93
19096;BME280;9680;52.520;13.332;2023-01-30T00:33:35;100970.00;;;2.68;71.75
19096;BME280;9680;52.520;13.332;2023-01-30T00:36:03;100957.16;;;2.71;71.95
19096;BME280;9680;52.520;13.332;2023-01-30T00:38:32;100949.44;;;2.72;72.15
19096;BME280;9680;52.520;13.332;2023-01-30T00:40:59;100928.84;;;2.75;71.95
19096;BME280;9680;52.520;13.332;2023-01-30T00:43:26;100926.28;;;2.75;71.60
19096;BME280;9680;52.520;13.332;2023-01-30T00:46:15;100904.84;;;2.72;71.77
19096;BME280;9680;52.520;13.332;2023-01-30T00:48:59;100901.41;;;2.73;71.80
19096;BME280;9680;52.520;13.332;2023-01-30T00:51:35;100896.25;;;2.74;71.81
19096;BME280;9680;52.520;13.332;2023-01-30T00:54:03;100898.81;;;2.73;71.65
19096;BME280;9680;52.520;13.332;2023-01-30T00:56:30;100881.69;;;2.72;71.74
19096;BME280;9680;52.520;13.332;2023-01-30T00:58:57;100885.97;;;2.73;71.78
19096;BME280;9680;52.520;13.332;2023-01-30T01:01:24;100882.53;;;2.75;71.75
19096;BME280;9680;52.520;13.332;2023-01-30T01:03:54;100867.06;;;2.77;71.68
19096;BME280;9680;52.520;13.332;2023-01-30T01:06:20;100871.38;;;2.72;71.49
19096;BME280;9680;52.520;13.332;2023-01-30T01:08:47;100866.25;;;2.69;71.61
19096;BME280;9680;52.520;13.332;2023-01-30T01:11:16;100864.53;;;2.68;71.68
19096;BME280;9680;52.520;13.332;2023-01-30T01:13:50;100858.56;;;2.67;71.70
19096;BME280;9680;52.520;13.332;2023-01-30T01:16:18;100852.56;;;2.68;71.72
19096;BME280;9680;52.520;13.332;2023-01-30T01:18:45;100805.38;;;2.68;71.76
19096;BME280;9680;52.520;13.332;2023-01-30T01:21:12;100792.53;;;2.69;71.65
19096;BME280;9680;52.520;13.332;2023-01-30T01:23:39;100811.38;;;2.70;71.83
19096;BME280;9680;52.520;13.332;2023-01-30T01:26:06;100809.63;;;2.72;72.00
19096;BME280;9680;52.520;13.332;2023-01-30T01:28:35;100808.78;;;2.74;71.81
19096;BME280;9680;52.520;13.332;2023-01-30T01:31:07;100799.34;;;2.75;71.80
19096;BME280;9680;52.520;13.332;2023-01-30T01:33:33;100805.34;;;2.74;71.80
19096;BME280;9680;52.520;13.332;2023-01-30T01:36:00;100793.34;;;2.74;71.73
19096;BME280;9680;52.520;13.332;2023-01-30T01:38:27;100797.63;;;2.77;71.92
19096;BME280;9680;52.520;13.332;2023-01-30T01:40:54;100809.63;;;2.75;71.58
19096;BME280;9680;52.520;13.332;2023-01-30T01:43:36;100817.34;;;2.75;71.76
19096;BME280;9680;52.520;13.332;2023-01-30T01:46:08;100827.66;;;2.73;71.70
19096;BME280;9680;52.520;13.332;2023-01-30T01:48:41;100809.63;;;2.72;71.78
19096;BME280;9680;52.520;13.332;2023-01-30T01:51:12;100813.09;;;2.72;71.88
19096;BME280;9680;52.520;13.332;2023-01-30T01:53:46;100802.78;;;2.71;71.70
19096;BME280;9680;52.520;13.332;2023-01-30T01:56:18;100794.22;;;2.69;71.81
19096;BME280;9680;52.520;13.332;2023-01-30T01:58:50;100789.09;;;2.64;71.92
19096;BME280;9680;52.520;13.332;2023-01-30T02:01:19;100773.66;;;2.66;71.94
19096;BME280;9680;52.520;13.332;2023-01-30T02:03:49;100754.81;;;2.65;72.32
19096;BME280;9680;52.520;13.332;2023-01-30T02:06:17;100743.66;;;2.66;72.58
19096;BME280;9680;52.520;13.332;2023-01-30T02:08:47;100735.06;;;2.64;72.78
19096;BME280;9680;52.520;13.332;2023-01-30T02:11:21;100729.94;;;2.62;73.18
19096;BME280;9680;52.520;13.332;2023-01-30T02:13:52;100723.09;;;2.61;73.50
19096;BME280;9680;52.520;13.332;2023-01-30T02:16:20;100713.66;;;2.60;74.02
19096;BME280;9680;52.520;13.332;2023-01-30T02:18:47;100696.53;;;2.59;74.21
19096;BME280;9680;52.520;13.332;2023-01-30T02:25:04;100674.25;;;2.55;75.08
19096;BME280;9680;52.520;13.332;2023-01-30T02:30:42;100665.69;;;2.52;75.47
19096;BME280;9680;52.520;13.332;2023-01-30T02:33:16;100669.13;;;2.51;75.72
19096;BME280;9680;52.520;13.332;2023-01-30T02:35:51;100671.72;;;2.52;75.92
19096;BME280;9680;52.520;13.332;2023-01-30T02:38:29;100672.53;;;2.53;75.91
19096;BME280;9680;52.520;13.332;2023-01-30T02:41:10;100660.56;;;2.53;76.04
19096;BME280;9680;52.520;13.332;2023-01-30T02:43:45;100642.53;;;2.55;76.24
19096;BME280;9680;52.520;13.332;2023-01-30T02:46:23;100640.03;;;2.44;76.80
19096;BME280;9680;52.520;13.332;2023-01-30T02:48:54;100633.19;;;2.41;77.39
19096;BME280;9680;52.520;13.332;2023-01-30T02:51:27;100633.22;;;2.35;78.05
19096;BME280;9680;52.520;13.332;2023-01-30T02:53:55;100628.94;;;2.36;78.46
19096;BME280;9680;52.520;13.332;2023-01-30T02:56:23;100607.50;;;2.40;78.70
19096;BME280;9680;52.520;13.332;2023-01-30T02:58:55;100608.38;;;2.36;78.86
19096;BME280;9680;52.520;13.332;2023-01-30T03:01:41;100611.81;;;2.35;79.03
19096;BME280;9680;52.520;13.332;2023-01-30T03:04:25;100594.66;;;2.37;79.02
19096;BME280;9680;52.520;13.332;2023-01-30T03:07:18;100597.19;;;2.38;79.09
19096;BME280;9680;52.520;13.332;2023-01-30T03:09:51;100587.78;;;2.39;79.24
19096;BME280;9680;52.520;13.332;2023-01-30T03:12:30;100578.31;;;2.42;79.28
19096;BME280;9680;52.520;13.332;2023-01-30T03:15:05;100580.00;;;2.48;79.25
19096;BME280;9680;52.520;13.332;2023-01-30T03:17:39;100574.84;;;2.50;79.01
19096;BME280;9680;52.520;13.332;2023-01-30T03:20:11;100559.38;;;2.53;79.05
19096;BME280;9680;52.520;13.332;2023-01-30T03:22:39;100554.22;;;2.57;78.90
19096;BME280;9680;52.520;13.332;2023-01-30T03:25:07;100561.00;;;2.63;78.87
19096;BME280;9680;52.520;13.332;2023-01-30T03:27:34;100566.16;;;2.65;78.76
19096;BME280;9680;52.520;13.332;2023-01-30T03:30:04;100556.72;;;2.68;78.62
19096;BME280;9680;52.520;13.332;2023-01-30T03:32:31;100541.25;;;2.70;78.53
19096;BME280;9680;52.520;13.332;2023-01-30T03:34:59;100542.94;;;2.74;78.46
19096;BME280;9680;52.520;13.332;2023-01-30T03:37:26;100552.34;;;2.76;78.57
19096;BME280;9680;52.520;13.332;2023-01-30T03:39:53;100554.91;;;2.78;78.46
19096;BME280;9680;52.520;13.332;2023-01-30T03:42:20;100549.72;;;2.81;78.45
19096;BME280;9680;52.520;13.332;2023-01-30T03:44:47;100535.16;;;2.82;78.35
19096;BME280;9680;52.520;13.332;2023-01-30T03:47:13;100526.63;;;2.76;78.52
19096;BME280;9680;52.520;13.332;2023-01-30T03:49:40;100521.47;;;2.75;78.74
19096;BME280;9680;52.520;13.332;2023-01-30T03:52:09;100515.47;;;2.78;79.03
19096;BME280;9680;52.520;13.332;2023-01-30T03:54:36;100511.16;;;2.78;79.08
19096;BME280;9680;52.520;13.332;2023-01-30T03:57:03;100506.03;;;2.80;79.35
19096;BME280;9680;52.520;13.332;2023-01-30T03:59:30;100509.44;;;2.80;79.44
19096;BME280;9680;52.520;13.332;2023-01-30T04:02:04;100499.97;;;2.82;79.53
19096;BME280;9680;52.520;13.332;2023-01-30T04:04:31;100487.06;;;2.87;79.54
19096;BME280;9680;52.520;13.332;2023-01-30T04:06:59;100470.78;;;2.86;79.63
19096;BME280;9680;52.520;13.332;2023-01-30T04:09:29;100469.91;;;2.89;79.65
19096;BME280;9680;52.520;13.332;2023-01-30T04:11:57;100475.88;;;2.91;79.66
19096;BME280;9680;52.520;13.332;2023-01-30T04:14:27;100469.91;;;2.89;79.79
19096;BME280;9680;52.520;13.332;2023-01-30T04:17:25;100464.69;;;2.94;79.88
19096;BME280;9680;52.520;13.332;2023-01-30T04:20:27;100451.81;;;2.95;79.74
19096;BME280;9680;52.520;13.332;2023-01-30T04:22:56;100449.22;;;3.00;79.77
19096;BME280;9680;52.520;13.332;2023-01-30T04:25:27;100444.84;;;3.05;79.59
19096;BME280;9680;52.520;13.332;2023-01-30T04:27:55;100449.97;;;3.08;79.33
19096;BME280;9680;52.520;13.332;2023-01-30T04:30:32;100449.09;;;3.09;79.23
19096;BME280;9680;52.520;13.332;2023-01-30T04:33:18;100445.63;;;3.12;79.16
19096;BME280;9680;52.520;13.332;2023-01-30T04:35:50;100443.88;;;3.15;79.20
19096;BME280;9680;52.520;13.332;2023-01-30T04:38:17;100431.81;;;3.19;78.81
19096;BME280;9680;52.520;13.332;2023-01-30T04:40:48;100437.84;;;3.16;78.90
19096;BME280;9680;52.520;13.332;2023-01-30T04:43:15;100438.66;;;3.22;79.32
19096;BME280;9680;52.520;13.332;2023-01-30T04:46:02;100443.72;;;3.26;79.02
19096;BME280;9680;52.520;13.332;2023-01-30T04:48:29;100414.56;;;3.26;78.98
19096;BME280;9680;52.520;13.332;2023-01-30T04:51:00;100410.28;;;3.25;78.88
19096;BME280;9680;52.520;13.332;2023-01-30T04:53:27;100406.84;;;3.24;79.27
19096;BME280;9680;52.520;13.332;2023-01-30T04:55:55;100408.59;;;3.22;79.56
19096;BME280;9680;52.520;13.332;2023-01-30T04:58:22;100399.13;;;3.24;79.65
19096;BME280;9680;52.520;13.332;2023-01-30T05:00:48;100402.56;;;3.25;79.61
19096;BME280;9680;52.520;13.332;2023-01-30T05:03:15;100412.88;;;3.25;79.73
19096;BME280;9680;52.520;13.332;2023-01-30T05:05:45;100403.41;;;3.25;79.91
19096;BME280;9680;52.520;13.332;2023-01-30T05:08:12;100392.31;;;3.20;80.15
19096;BME280;9680;52.520;13.332;2023-01-30T05:10:40;100395.81;;;3.17;80.53
19096;BME280;9680;52.520;13.332;2023-01-30T05:13:08;100389.78;;;3.17;80.93
19096;BME280;9680;52.520;13.332;2023-01-30T05:15:35;100395.88;;;3.11;81.58
19096;BME280;9680;52.520;13.332;2023-01-30T05:18:02;100382.22;;;3.04;81.70
19096;BME280;9680;52.520;13.332;2023-01-30T05:20:29;100386.56;;;2.99;82.05
19096;BME280;9680;52.520;13.332;2023-01-30T05:22:55;100382.34;;;2.94;82.72
19096;BME280;9680;52.520;13.332;2023-01-30T05:25:22;100382.34;;;2.95;83.03
19096;BME280;9680;52.520;13.332;2023-01-30T05:27:49;100366.06;;;2.93;83.58
19096;BME280;9680;52.520;13.332;2023-01-30T05:30:17;100359.19;;;2.94;83.69
19096;BME280;9680;52.520;13.332;2023-01-30T05:32:44;100367.78;;;2.94;83.92
19096;BME280;9680;52.520;13.332;2023-01-30T05:35:11;100360.88;;;2.96;84.04
19096;BME280;9680;52.520;13.332;2023-01-30T05:37:38;100348.84;;;3.00;84.05
19096;BME280;9680;52.520;13.332;2023-01-30T05:40:06;100346.22;;;3.03;84.06
19096;BME280;9680;52.520;13.332;2023-01-30T05:42:33;100341.94;;;3.02;84.22
19096;BME280;9680;52.520;13.332;2023-01-30T05:44:59;100339.38;;;3.02;84.24
19096;BME280;9680;52.520;13.332;2023-01-30T05:47:28;100335.94;;;3.03;84.28
19096;BME280;9680;52.520;13.332;2023-01-30T05:49:54;100325.66;;;3.01;84.38
19096;BME280;9680;52.520;13.332;2023-01-30T05:52:21;100331.66;;;3.02;84.55
19096;BME280;9680;52.520;13.332;2023-01-30T05:54:48;100319.63;;;3.04;84.69
19096;BME280;9680;52.520;13.332;2023-01-30T05:57:14;100322.19;;;3.04;84.85
19096;BME280;9680;52.520;13.332;2023-01-30T05:59:41;100300.78;;;3.02;85.04
19096;BME280;9680;52.520;13.332;2023-01-30T06:02:08;100291.34;;;3.01;85.34
19096;BME280;9680;52.520;13.332;2023-01-30T06:04:36;100300.75;;;3.03;85.47
19096;BME280;9680;52.520;13.332;2023-01-30T06:07:03;100297.31;;;3.03;85.50
19096;BME280;9680;52.520;13.332;2023-01-30T06:09:30;100302.41;;;3.08;85.43
19096;BME280;9680;52.520;13.332;2023-01-30T06:11:56;100301.50;;;3.10;85.63
19096;BME280;9680;52.520;13.332;2023-01-30T06:14:23;100297.19;;;3.12;85.68
19096;BME280;9680;52.520;13.332;2023-01-30T06:16:50;100308.31;;;3.13;85.67
19096;BME280;9680;52.520;13.332;2023-01-30T06:19:16;100306.56;;;3.16;85.96
19096;BME280;9680;52.520;13.332;2023-01-30T06:21:45;100297.97;;;3.17;86.03
19096;BME280;9680;52.520;13.332;2023-01-30T06:24:12;100297.09;;;3.18;86.04
19096;BME280;9680;52.520;13.332;2023-01-30T06:26:38;100298.75;;;3.23;86.08
19096;BME280;9680;52.520;13.332;2023-01-30T06:29:05;100314.16;;;3.26;86.23
19096;BME280;9680;52.520;13.332;2023-01-30T06:31:32;100304.66;;;3.29;86.22
19096;BME280;9680;52.520;13.332;2023-01-30T06:33:58;100309.75;;;3.34;86.32
19096;BME280;9680;52.520;13.332;2023-01-30T06:36:25;100314.84;;;3.39;86.16
19096;BME280;9680;52.520;13.332;2023-01-30T06:38:53;100306.19;;;3.41;86.33
19096;BME280;9680;52.520;13.332;2023-01-30T06:41:20;100316.41;;;3.47;86.28
19096;BME280;9680;52.520;13.332;2023-01-30T06:43:47;100317.22;;;3.49;86.26
19096;BME280;9680;52.520;13.332;2023-01-30T06:46:14;100316.31;;;3.55;86.26
19096;BME280;9680;52.520;13.332;2023-01-30T06:48:40;100309.41;;;3.57;86.42
19096;BME280;9680;52.520;13.332;2023-01-30T06:51:07;100309.31;;;3.62;86.43
19096;BME280;9680;52.520;13.332;2023-01-30T06:53:34;100292.97;;;3.64;86.52
19096;BME280;9680;52.520;13.332;2023-01-30T06:56:02;100283.53;;;3.65;86.24
19096;BME280;9680;52.520;13.332;2023-01-30T06:58:29;100292.91;;;3.69;86.36
19096;BME280;9680;52.520;13.332;2023-01-30T07:00:56;100277.44;;;3.69;86.45
19096;BME280;9680;52.520;13.332;2023-01-30T07:03:23;100287.66;;;3.74;86.48
19096;BME280;9680;52.520;13.332;2023-01-30T07:05:50;100291.94;;;3.76;86.45
19096;BME280;9680;52.520;13.332;2023-01-30T07:08:17;100283.28;;;3.79;86.44
19096;BME280;9680;52.520;13.332;2023-01-30T07:10:44;100282.38;;;3.82;86.55
19096;BME280;9680;52.520;13.332;2023-01-30T07:13:12;100273.72;;;3.86;86.67
19096;BME280;9680;52.520;13.332;2023-01-30T07:15:39;100271.09;;;3.89;86.85
19096;BME280;9680;52.520;13.332;2023-01-30T07:18:05;100273.56;;;3.93;86.90
19096;BME280;9680;52.520;13.332;2023-01-30T07:20:32;100273.56;;;3.95;87.02
19096;BME280;9680;52.520;13.332;2023-01-30T07:22:59;100270.94;;;3.97;87.07
19096;BME280;9680;52.520;13.332;2023-01-30T07:25:27;100261.50;;;3.97;87.50
19096;BME280;9680;52.520;13.332;2023-01-30T07:27:56;100260.66;;;3.95;87.71
19096;BME280;9680;52.520;13.332;2023-01-30T07:30:24;100245.97;;;4.00;87.80
19096;BME280;9680;52.520;13.332;2023-01-30T07:32:52;100256.19;;;4.05;87.93
19096;BME280;9680;52.520;13.332;2023-01-30T07:35:20;100252.66;;;4.11;88.11
19096;BME280;9680;52.520;13.332;2023-01-30T07:37:47;100262.00;;;4.16;88.05
19096;BME280;9680;52.520;13.332;2023-01-30T07:40:15;100259.25;;;4.24;87.91
19096;BME280;9680;52.520;13.332;2023-01-30T07:42:42;100267.75;;;4.31;87.94
19096;BME280;9680;52.520;13.332;2023-01-30T07:45:09;100268.59;;;4.31;87.69
19096;BME280;9680;52.520;13.332;2023-01-30T07:47:38;100264.28;;;4.30;87.63
19096;BME280;9680;52.520;13.332;2023-01-30T07:50:06;100282.34;;;4.30;87.87
19096;BME280;9680;52.520;13.332;2023-01-30T07:52:33;100274.59;;;4.30;88.26
19096;BME280;9680;52.520;13.332;2023-01-30T07:54:59;100273.69;;;4.34;88.33
19096;BME280;9680;52.520;13.332;2023-01-30T07:57:26;100277.06;;;4.38;88.21
19096;BME280;9680;52.520;13.332;2023-01-30T07:59:53;100283.06;;;4.39;88.42
19096;BME280;9680;52.520;13.332;2023-01-30T08:02:19;100283.06;;;4.39;88.62
19096;BME280;9680;52.520;13.332;2023-01-30T08:04:47;100282.28;;;4.35;88.99
19096;BME280;9680;52.520;13.332;2023-01-30T08:07:14;100283.97;;;4.36;89.23
19096;BME280;9680;52.520;13.332;2023-01-30T08:09:41;100279.69;;;4.36;89.48
19096;BME280;9680;52.520;13.332;2023-01-30T08:12:07;100281.28;;;4.42;89.57
19096;BME280;9680;52.520;13.332;2023-01-30T08:14:34;100281.97;;;4.50;89.65
19096;BME280;9680;52.520;13.332;2023-01-30T08:17:01;100281.91;;;4.54;89.60
19096;BME280;9680;52.520;13.332;2023-01-30T08:19:28;100281.88;;;4.55;89.65
19096;BME280;9680;52.520;13.332;2023-01-30T08:21:57;100274.06;;;4.58;89.67
19096;BME280;9680;52.520;13.332;2023-01-30T08:24:24;100274.81;;;4.65;90.05
19096;BME280;9680;52.520;13.332;2023-01-30T08:26:51;100264.16;;;4.80;90.21
19096;BME280;9680;52.520;13.332;2023-01-30T08:29:17;100254.50;;;4.89;89.74
19096;BME280;9680;52.520;13.332;2023-01-30T08:31:44;100240.66;;;4.91;89.28
19096;BME280;9680;52.520;13.332;2023-01-30T08:34:11;100258.75;;;4.91;89.20
19096;BME280;9680;52.520;13.332;2023-01-30T08:36:38;100258.66;;;4.94;89.16
19096;BME280;9680;52.520;13.332;2023-01-30T08:39:06;100271.72;;;4.88;88.90
19096;BME280;9680;52.520;13.332;2023-01-30T08:41:32;100275.13;;;4.90;88.89
19096;BME280;9680;52.520;13.332;2023-01-30T08:43:59;100269.13;;;4.88;88.90
19096;BME280;9680;52.520;13.332;2023-01-30T08:46:26;100277.75;;;4.87;89.23
19096;BME280;9680;52.520;13.332;2023-01-30T08:48:53;100270.16;;;4.81;89.13
19096;BME280;9680;52.520;13.332;2023-01-30T08:51:20;100282.19;;;4.82;89.37
19096;BME280;9680;52.520;13.332;2023-01-30T08:53:47;100269.19;;;4.85;89.43
19096;BME280;9680;52.520;13.332;2023-01-30T08:56:15;100267.34;;;4.92;89.46
19096;BME280;9680;52.520;13.332;2023-01-30T08:58:42;100261.09;;;5.02;89.28
19096;BME280;9680;52.520;13.332;2023-01-30T09:01:11;100270.19;;;5.19;89.07
19096;BME280;9680;52.520;13.332;2023-01-30T09:03:38;100264.78;;;5.30;88.33
19096;BME280;9680;52.520;13.332;2023-01-30T09:06:05;100268.75;;;5.43;88.18
19096;BME280;9680;52.520;13.332;2023-01-30T09:08:32;100269.19;;;5.61;88.04
19096;BME280;9680;52.520;13.332;2023-01-30T09:10:59;100271.75;;;5.62;86.51
19096;BME280;9680;52.520;13.332;2023-01-30T09:13:27;100267.66;;;5.53;86.23
19096;BME280;9680;52.520;13.332;2023-01-30T09:15:54;100273.00;;;5.46;86.20
19096;BME280;9680;52.520;13.332;2023-01-30T09:18:21;100274.72;;;5.47;86.76
19096;BME280;9680;52.520;13.332;2023-01-30T09:20:47;100268.44;;;5.56;86.72
19096;BME280;9680;52.520;13.332;2023-01-30T09:23:14;100275.78;;;5.73;86.99
19096;BME280;9680;52.520;13.332;2023-01-30T09:25:43;100282.63;;;5.75;85.94
19096;BME280;9680;52.520;13.332;2023-01-30T09:28:10;100283.31;;;5.82;85.81
19096;BME280;9680;52.520;13.332;2023-01-30T09:30:38;100278.75;;;5.92;85.78
19096;BME280;9680;52.520;13.332;2023-01-30T09:33:05;100282.06;;;5.97;85.41
19096;BME280;9680;52.520;13.332;2023-01-30T09:35:32;100270.78;;;6.03;85.14
19096;BME280;9680;52.520;13.332;2023-01-30T09:37:59;100278.38;;;6.09;84.88
19096;BME280;9680;52.520;13.332;2023-01-30T09:40:27;100284.28;;;6.12;84.22
19096;BME280;9680;52.520;13.332;2023-01-30T09:43:21;100277.47;;;6.10;84.41
19096;BME280;9680;52.520;13.332;2023-01-30T09:45:59;100277.25;;;6.18;84.38
19096;BME280;9680;52.520;13.332;2023-01-30T09:48:31;100263.25;;;6.25;83.36
19096;BME280;9680;52.520;13.332;2023-01-30T09:51:26;100280.38;;;6.29;83.67
19096;BME280;9680;52.520;13.332;2023-01-30T09:54:15;100268.50;;;6.22;82.38
19096;BME280;9680;52.520;13.332;2023-01-30T09:56:44;100266.25;;;6.11;82.09
19096;BME280;9680;52.520;13.332;2023-01-30T09:59:18;100263.84;;;6.03;82.38
19096;BME280;9680;52.520;13.332;2023-01-30T10:01:55;100273.38;;;6.01;82.75
19096;BME280;9680;52.520;13.332;2023-01-30T10:04:30;100275.22;;;5.94;82.31
19096;BME280;9680;52.520;13.332;2023-01-30T10:07:06;100270.19;;;5.90;82.50
19096;BME280;9680;52.520;13.332;2023-01-30T10:09:40;100265.91;;;5.89;82.35
19096;BME280;9680;52.520;13.332;2023-01-30T10:12:27;100257.75;;;6.06;82.14
19096;BME280;9680;52.520;13.332;2023-01-30T10:15:23;100272.03;;;6.19;80.03
19096;BME280;9680;52.520;13.332;2023-01-30T10:18:05;100261.25;;;6.36;79.84
19096;BME280;9680;52.520;13.332;2023-01-30T10:20:46;100268.56;;;6.52;79.07
19096;BME280;9680;52.520;13.332;2023-01-30T10:23:29;100282.13;;;6.60;77.19
19096;BME280;9680;52.520;13.332;2023-01-30T10:26:05;100262.47;;;6.83;76.27
19096;BME280;9680;52.520;13.332;2023-01-30T10:28:38;100273.84;;;7.07;76.70
19096;BME280;9680;52.520;13.332;2023-01-30T10:31:10;100278.72;;;7.17;74.52
19096;BME280;9680;52.520;13.332;2023-01-30T10:33:43;100274.53;;;7.12;73.95
19096;BME280;9680;52.520;13.332;2023-01-30T10:36:20;100267.75;;;7.08;73.44
19096;BME280;9680;52.520;13.332;2023-01-30T10:38:50;100272.41;;;6.97;73.11
19096;BME280;9680;52.520;13.332;2023-01-30T10:41:22;100237.38;;;6.85;73.64
19096;BME280;9680;52.520;13.332;2023-01-30T10:43:57;100258.25;;;6.80;73.72
19096;BME280;9680;52.520;13.332;2023-01-30T10:46:38;100252.22;;;6.80;73.02
19096;BME280;9680;52.520;13.332;2023-01-30T10:49:14;100250.78;;;6.69;72.83
19096;BME280;9680;52.520;13.332;2023-01-30T10:51:49;100248.25;;;6.68;72.52
19096;BME280;9680;52.520;13.332;2023-01-30T10:54:22;100257.91;;;6.63;71.98
19096;BME280;9680;52.520;13.332;2023-01-30T10:56:57;100247.16;;;6.47;71.08
19096;BME280;9680;52.520;13.332;2023-01-30T10:59:38;100243.94;;;6.38;71.13
19096;BME280;9680;52.520;13.332;2023-01-30T11:02:22;100259.38;;;6.41;71.48
19096;BME280;9680;52.520;13.332;2023-01-30T11:04:56;100231.09;;;6.35;71.79
19096;BME280;9680;52.520;13.332;2023-01-30T11:07:24;100226.91;;;6.31;71.25
19096;BME280;9680;52.520;13.332;2023-01-30T11:09:50;100228.66;;;6.29;71.98
19096;BME280;9680;52.520;13.332;2023-01-30T11:12:17;100231.13;;;6.34;72.36
19096;BME280;9680;52.520;13.332;2023-01-30T11:14:52;100230.75;;;6.46;72.68
19096;BME280;9680;52.520;13.332;2023-01-30T11:17:20;100211.56;;;6.53;71.72
19096;BME280;9680;52.520;13.332;2023-01-30T11:19:55;100206.94;;;6.65;72.01
19096;BME280;9680;52.520;13.332;2023-01-30T11:22:24;100210.75;;;6.81;71.38
19096;BME280;9680;52.520;13.332;2023-01-30T11:25:00;100196.22;;;7.04;71.54
19096;BME280;9680;52.520;13.332;2023-01-30T11:27:29;100190.34;;;7.26;70.53
19096;BME280;9680;52.520;13.332;2023-01-30T11:30:10;100186.94;;;7.24;69.72
19096;BME280;9680;52.520;13.332;2023-01-30T11:33:16;100175.34;;;7.36;69.31
19096;BME280;9680;52.520;13.332;2023-01-30T11:35:54;100168.53;;;7.33;68.78
19096;BME280;9680;52.520;13.332;2023-01-30T11:38:25;100177.69;;;7.17;68.49
19096;BME280;9680;52.520;13.332;2023-01-30T11:41:02;100184.19;;;7.03;69.11
19096;BME280;9680;52.520;13.332;2023-01-30T11:43:29;100168.28;;;6.87;69.16
19096;BME280;9680;52.520;13.332;2023-01-30T11:45:59;100178.19;;;6.74;70.01
19096;BME280;9680;52.520;13.332;2023-01-30T11:48:27;100180.81;;;6.73;71.10
19096;BME280;9680;52.520;13.332;2023-01-30T11:50:59;100163.47;;;6.46;72.54
19096;BME280;9680;52.520;13.332;2023-01-30T11:53:32;100176.25;;;6.22;73.18
19096;BME280;9680;52.520;13.332;2023-01-30T11:56:04;100175.00;;;6.06;74.08
19096;BME280;9680;52.520;13.332;2023-01-30T11:58:34;100170.28;;;5.87;75.63
19096;BME280;9680;52.520;13.332;2023-01-30T12:01:02;100174.53;;;5.57;76.49
19096;BME280;9680;52.520;13.332;2023-01-30T12:03:30;100173.81;;;5.17;79.06
19096;BME280;9680;52.520;13.332;2023-01-30T12:06:00;100179.00;;;4.80;82.22
19096;BME280;9680;52.520;13.332;2023-01-30T12:08:32;100225.34;;;4.44;85.57
19096;BME280;9680;52.520;13.332;2023-01-30T12:11:01;100163.28;;;4.10;88.38
19096;BME280;9680;52.520;13.332;2023-01-30T12:13:34;100158.47;;;3.94;90.54
19096;BME280;9680;52.520;13.332;2023-01-30T12:16:11;100168.91;;;3.86;91.90
19096;BME280;9680;52.520;13.332;2023-01-30T12:18:47;100158.56;;;3.88;93.15
19096;BME280;9680;52.520;13.332;2023-01-30T12:21:25;100147.63;;;4.19;95.00
19096;BME280;9680;52.520;13.332;2023-01-30T12:23:59;100154.88;;;4.42;94.85
19096;BME280;9680;52.520;13.332;2023-01-30T12:26:34;100135.59;;;4.59;93.84
19096;BME280;9680;52.520;13.332;2023-01-30T12:29:16;100128.41;;;4.73;92.87
19096;BME280;9680;52.520;13.332;2023-01-30T12:31:49;100137.41;;;4.93;91.81
19096;BME280;9680;52.520;13.332;2023-01-30T12:34:17;100134.75;;;4.96;88.59
19096;BME280;9680;52.520;13.332;2023-01-30T12:36:52;100108.06;;;4.95;87.53
19096;BME280;9680;52.520;13.332;2023-01-30T12:39:33;100104.63;;;5.31;86.65
19096;BME280;9680;52.520;13.332;2023-01-30T12:42:21;100101.47;;;5.83;85.94
19096;BME280;9680;52.520;13.332;2023-01-30T12:45:03;100099.66;;;6.47;84.08
19096;BME280;9680;52.520;13.332;2023-01-30T12:47:57;100107.63;;;6.67;80.03
19096;BME280;9680;52.520;13.332;2023-01-30T12:50:32;100108.31;;;6.73;78.71
19096;BME280;9680;52.520;13.332;2023-01-30T12:53:28;100111.47;;;6.82;77.77
19096;BME280;9680;52.520;13.332;2023-01-30T12:59:06;100103.44;;;6.90;75.12
19096;BME280;9680;52.520;13.332;2023-01-30T13:01:48;100085.31;;;6.90;75.16
19096;BME280;9680;52.520;13.332;2023-01-30T13:04:27;100097.31;;;6.93;75.20
19096;BME280;9680;52.520;13.332;2023-01-30T13:07:06;100090.59;;;6.87;73.52
19096;BME280;9680;52.520;13.332;2023-01-30T13:12:49;100098.06;;;6.69;72.82
19096;BME280;9680;52.520;13.332;2023-01-30T13:15:25;100099.25;;;6.59;73.45
19096;BME280;9680;52.520;13.332;2023-01-30T13:18:04;100086.56;;;6.51;72.51
19096;BME280;9680;52.520;13.332;2023-01-30T13:20:42;100093.41;;;6.52;71.27
19096;BME280;9680;52.520;13.332;2023-01-30T13:23:15;100097.91;;;6.47;70.51
19096;BME280;9680;52.520;13.332;2023-01-30T13:25:49;100076.09;;;6.54;68.75
19096;BME280;9680;52.520;13.332;2023-01-30T13:28:22;100081.19;;;6.58;68.64
19096;BME280;9680;52.520;13.332;2023-01-30T13:30:51;100073.16;;;6.67;68.94
19096;BME280;9680;52.520;13.332;2023-01-30T13:33:21;100067.75;;;6.73;69.11